createdAt,value
2023-11-24T00:04:38.708Z,95796.53
2023-11-24T00:09:41.264Z,95791.56
2023-11-24T00:14:43.543Z,95776.72
2023-11-24T00:19:45.653Z,95768.28
2023-11-24T00:24:53.283Z,95768.63
2023-11-24T00:29:55.673Z,95763.22
2023-11-24T00:34:57.799Z,95743.97
2023-11-24T00:39:59.965Z,95733.34
2023-11-24T00:45:03.908Z,95709.75
2023-11-24T00:50:07.383Z,95710.03
2023-11-24T00:55:09.744Z,95702.97
2023-11-24T01:00:12.286Z,95700.66
2023-11-24T01:05:14.573Z,95687.38
2023-11-24T01:10:16.711Z,95682.84
2023-11-24T01:15:19.321Z,95678.56
2023-11-24T01:20:22.942Z,95677.50
2023-11-24T01:25:25.140Z,95656.38
2023-11-24T01:30:28.021Z,95655.75
2023-11-24T01:35:30.749Z,95631.16
2023-11-24T01:40:35.312Z,95603.16
2023-11-24T01:45:37.579Z,95595.00
2023-11-24T01:50:40.031Z,95583.88
2023-11-24T01:55:43.075Z,95570.94
2023-11-24T02:00:45.983Z,95579.22
2023-11-24T02:05:48.804Z,95572.72
2023-11-24T02:10:50.981Z,95563.47
2023-11-24T02:15:57.359Z,95546.63
2023-11-24T02:21:02.113Z,95544.56
2023-11-24T02:26:04.967Z,95543.41
2023-11-24T02:31:09.121Z,95538.69
2023-11-24T02:36:18.777Z,95540.03
2023-11-24T02:41:24.323Z,95523.09
2023-11-24T02:46:26.488Z,95510.97
2023-11-24T02:51:29.893Z,95491.34
2023-11-24T02:56:32.269Z,95499.56
2023-11-24T03:01:34.586Z,95499.91
2023-11-24T03:06:43.802Z,95492.50
2023-11-24T03:11:45.914Z,95494.03
2023-11-24T03:16:52.865Z,95491.53
2023-11-24T03:21:55.143Z,95476.06
2023-11-24T03:26:57.304Z,95463.63
2023-11-24T03:31:59.481Z,95439.66
2023-11-24T03:37:01.726Z,95461.50
2023-11-24T03:42:04.154Z,95454.00
2023-11-24T03:47:07.210Z,95443.72
2023-11-24T03:52:09.440Z,95430.16
2023-11-24T03:57:11.687Z,95407.19
2023-11-24T04:02:14.809Z,95420.78
2023-11-24T04:07:17.086Z,95445.94
2023-11-24T04:12:19.178Z,95446.63
2023-11-24T04:17:21.472Z,95449.03
2023-11-24T04:22:23.616Z,95433.13
2023-11-24T04:27:25.918Z,95424.84
2023-11-24T04:32:28.116Z,95428.59
2023-11-24T04:37:30.234Z,95425.16
2023-11-24T04:42:32.556Z,95397.72
2023-11-24T04:47:35.512Z,95390.94
2023-11-24T04:52:37.785Z,95380.19
2023-11-24T04:57:40.486Z,95378.34
2023-11-24T05:02:42.757Z,95377.97
2023-11-24T05:07:45.162Z,95349.22
2023-11-24T05:12:47.421Z,95368.97
2023-11-24T05:17:49.732Z,95384.38
2023-11-24T05:22:51.958Z,95371.06
2023-11-24T05:27:54.134Z,95363.38
2023-11-24T05:32:56.387Z,95362.75
2023-11-24T05:38:00.439Z,95365.66
2023-11-24T05:43:02.965Z,95362.28
2023-11-24T05:48:05.491Z,95363.28
2023-11-24T05:53:07.701Z,95368.25
2023-11-24T05:58:10.041Z,95360.53
2023-11-24T06:03:12.376Z,95350.25
2023-11-24T06:08:14.593Z,95345.50
2023-11-24T06:13:17.269Z,95343.34
2023-11-24T06:18:19.729Z,95343.94
2023-11-24T06:23:22.540Z,95314.31
2023-11-24T06:28:26.134Z,95338.34
2023-11-24T06:33:28.778Z,95331.97
2023-11-24T06:38:31.148Z,95341.56
2023-11-24T06:43:33.421Z,95330.78
2023-11-24T06:48:39.513Z,95294.06
2023-11-24T06:53:41.757Z,95308.91
2023-11-24T06:58:43.844Z,95325.22
2023-11-24T07:03:46.771Z,95306.25
2023-11-24T07:08:49.044Z,95312.50
2023-11-24T07:13:52.816Z,95308.31
2023-11-24T07:18:55.272Z,95317.91
2023-11-24T07:23:57.786Z,95314.41
2023-11-24T07:29:00.035Z,95297.00
2023-11-24T07:34:02.353Z,95280.47
2023-11-24T07:39:04.922Z,95307.31
2023-11-24T07:44:07.239Z,95310.63
2023-11-24T07:49:09.438Z,95311.84
2023-11-24T07:54:11.693Z,95309.03
2023-11-24T07:59:13.910Z,95317.88
2023-11-24T08:04:16.132Z,95302.38
2023-11-24T08:09:18.553Z,95295.19
2023-11-24T08:14:25.388Z,95308.63
2023-11-24T08:19:28.340Z,95298.06
2023-11-24T08:24:30.594Z,95277.66
2023-11-24T08:29:32.731Z,95299.25
2023-11-24T08:34:34.888Z,95293.72
2023-11-24T08:39:37.078Z,95299.13
2023-11-24T08:44:40.431Z,95297.97
2023-11-24T08:49:42.817Z,95277.59
2023-11-24T08:54:44.979Z,95279.19
2023-11-24T08:59:47.149Z,95276.00
2023-11-24T09:04:50.719Z,95258.63
2023-11-24T09:09:53.459Z,95258.84
2023-11-24T09:14:55.766Z,95259.63
2023-11-24T09:19:58.473Z,95255.44
2023-11-24T09:25:03.524Z,95258.63
2023-11-24T09:30:09.946Z,95265.44
2023-11-24T09:35:12.514Z,95274.63
2023-11-24T09:40:18.125Z,95273.38
2023-11-24T09:45:23.907Z,95264.00
2023-11-24T09:50:28.201Z,95278.78
2023-11-24T09:55:30.812Z,95281.19
2023-11-24T10:00:33.196Z,95277.00
2023-11-24T10:05:35.346Z,95281.16
2023-11-24T10:10:37.473Z,95294.34
2023-11-24T10:15:39.600Z,95290.34
2023-11-24T10:20:42.641Z,95296.72
2023-11-24T10:25:44.792Z,95300.69
2023-11-24T10:30:47.118Z,95304.28
2023-11-24T10:35:50.666Z,95299.50
2023-11-24T10:40:52.919Z,95290.31
2023-11-24T10:45:57.892Z,95305.69
2023-11-24T10:51:05.940Z,95307.88
2023-11-24T10:56:09.761Z,95311.88
2023-11-24T11:01:14.342Z,95301.31
2023-11-24T11:06:35.123Z,95310.47
2023-11-24T11:11:50.773Z,95324.44
2023-11-24T11:16:53.650Z,95339.47
2023-11-24T11:21:57.728Z,95339.41
2023-11-24T11:27:00.006Z,95334.41
2023-11-24T11:32:03.742Z,95333.41
2023-11-24T11:37:08.467Z,95368.16
2023-11-24T11:42:12.190Z,95373.34
2023-11-24T11:47:28.424Z,95354.56
2023-11-24T11:52:32.624Z,95386.50
2023-11-24T11:57:36.058Z,95382.94
2023-11-24T12:02:39.400Z,95382.59
2023-11-24T12:07:45.097Z,95408.59
2023-11-24T12:12:47.297Z,95413.41
2023-11-24T12:17:49.588Z,95415.00
2023-11-24T12:22:54.433Z,95413.22
2023-11-24T12:28:00.536Z,95419.00
2023-11-24T12:33:02.692Z,95431.41
2023-11-24T12:38:06.026Z,95429.78
2023-11-24T12:43:13.277Z,95455.38
2023-11-24T12:48:25.535Z,95453.16
2023-11-24T12:53:29.936Z,95466.13
2023-11-24T12:58:32.055Z,95478.91
2023-11-24T13:03:34.150Z,95496.03
2023-11-24T13:08:38.195Z,95501.44
2023-11-24T13:13:40.265Z,95496.19
2023-11-24T13:18:42.425Z,95501.78
2023-11-24T13:23:44.800Z,95494.56
2023-11-24T13:28:47.026Z,95481.56
2023-11-24T13:33:49.127Z,95520.31
2023-11-24T13:38:55.134Z,95524.28
2023-11-24T13:43:57.571Z,95530.88
2023-11-24T13:49:00.525Z,95534.28
2023-11-24T13:54:05.202Z,95536.47
2023-11-24T13:59:13.177Z,95546.22
2023-11-24T14:04:15.926Z,95562.13
2023-11-24T14:09:19.066Z,95538.31
2023-11-24T14:14:21.495Z,95566.13
2023-11-24T14:19:23.740Z,95584.53
2023-11-24T14:24:25.958Z,95591.88
2023-11-24T14:29:29.648Z,95593.50
2023-11-24T14:34:31.925Z,95604.09
2023-11-24T14:39:34.908Z,95618.50
2023-11-24T14:44:40.706Z,95632.47
2023-11-24T14:49:42.834Z,95635.06
2023-11-24T14:54:45.076Z,95617.19
2023-11-24T14:59:49.642Z,95647.22
2023-11-24T15:04:51.756Z,95665.19
2023-11-24T15:09:53.973Z,95675.59
2023-11-24T15:15:00.415Z,95657.53
2023-11-24T15:20:06.151Z,95698.59
2023-11-24T15:25:08.712Z,95701.94
2023-11-24T15:30:13.242Z,95694.84
2023-11-24T15:35:15.367Z,95727.91
2023-11-24T15:40:21.976Z,95734.47
2023-11-24T15:45:25.164Z,95728.50
2023-11-24T15:50:30.728Z,95735.06
2023-11-24T15:55:34.175Z,95748.03
2023-11-24T16:00:41.137Z,95677.59
2023-11-24T16:05:50.680Z,95753.97
2023-11-24T16:10:58.957Z,95757.66
2023-11-24T16:16:01.295Z,95756.00
2023-11-24T16:21:03.782Z,95769.53
2023-11-24T16:26:06.092Z,95783.66
2023-11-24T16:31:08.514Z,95784.41
2023-11-24T16:36:12.373Z,95787.13
2023-11-24T16:41:15.911Z,95793.47
2023-11-24T16:46:19.038Z,95796.78
2023-11-24T16:51:21.264Z,95781.38
2023-11-24T16:56:25.252Z,95802.38
2023-11-24T17:01:27.567Z,95807.78
2023-11-24T17:06:29.818Z,95837.16
2023-11-24T17:11:32.014Z,95838.38
2023-11-24T17:16:37.109Z,95844.13
2023-11-24T17:21:45.676Z,95823.22
2023-11-24T17:26:47.982Z,95851.00
2023-11-24T17:31:54.087Z,95857.00
2023-11-24T17:36:56.229Z,95862.63
2023-11-24T17:41:58.436Z,95843.31
2023-11-24T17:47:00.822Z,95869.06
2023-11-24T17:52:03.401Z,95879.69
2023-11-24T17:57:05.993Z,95881.13
2023-11-24T18:02:09.451Z,95890.75
2023-11-24T18:07:13.991Z,95895.25
2023-11-24T18:12:17.384Z,95887.81
2023-11-24T18:17:19.628Z,95914.88
2023-11-24T18:22:22.461Z,95915.50
2023-11-24T18:27:25.234Z,95931.88
2023-11-24T18:32:27.419Z,95947.50
2023-11-24T18:37:30.245Z,95948.03
2023-11-24T18:42:33.868Z,95921.88
2023-11-24T18:47:36.397Z,95964.59
2023-11-24T18:52:38.793Z,95974.75
2023-11-24T18:57:44.328Z,95976.84
2023-11-24T19:02:50.907Z,95988.91
2023-11-24T19:07:53.134Z,95992.03
2023-11-24T19:12:56.444Z,95985.25
2023-11-24T19:17:59.159Z,95971.94
2023-11-24T19:23:01.370Z,95948.00
2023-11-24T19:28:03.819Z,95965.50
2023-11-24T19:33:07.385Z,95976.84
2023-11-24T19:38:09.501Z,95978.28
2023-11-24T19:43:11.762Z,95978.72
2023-11-24T19:48:14.362Z,95989.63
2023-11-24T19:53:16.504Z,95986.69
2023-11-24T19:58:18.732Z,95982.41
2023-11-24T20:03:20.926Z,95995.88
2023-11-24T20:08:23.172Z,95998.88
2023-11-24T20:13:25.403Z,96012.59
2023-11-24T20:18:27.824Z,96017.75
2023-11-24T20:23:30.127Z,96026.25
2023-11-24T20:28:33.194Z,96039.22
2023-11-24T20:33:35.428Z,96046.25
2023-11-24T20:38:37.578Z,96045.50
2023-11-24T20:43:40.451Z,96054.56
2023-11-24T20:48:44.830Z,96067.44
2023-11-24T20:53:47.008Z,96076.06
2023-11-24T20:58:49.149Z,96092.41
2023-11-24T21:03:51.474Z,96106.53
2023-11-24T21:09:00.752Z,96089.41
2023-11-24T21:14:03.026Z,96114.59
2023-11-24T21:19:05.680Z,96108.16
2023-11-24T21:24:08.579Z,96112.34
2023-11-24T21:29:10.791Z,96113.75
2023-11-24T21:34:13.140Z,96111.28
2023-11-24T21:39:15.537Z,96108.66
2023-11-24T21:44:17.781Z,96109.41
2023-11-24T21:49:20.018Z,96116.34
2023-11-24T21:54:22.148Z,96122.03
2023-11-24T21:59:24.276Z,96126.72
2023-11-24T22:04:26.466Z,96115.72
2023-11-24T22:09:28.690Z,96112.19
2023-11-24T22:14:30.878Z,96112.84
2023-11-24T22:19:36.296Z,96120.78
2023-11-24T22:24:38.518Z,96131.13
2023-11-24T22:29:51.279Z,96129.00
2023-11-24T22:35:02.929Z,96124.16
2023-11-24T22:40:08.520Z,96131.09
2023-11-24T22:45:11.208Z,96138.50
2023-11-24T22:50:13.433Z,96146.72
2023-11-24T22:55:15.849Z,96151.91
2023-11-24T23:00:51.496Z,96151.44
2023-11-24T23:05:53.712Z,96156.00
2023-11-24T23:10:55.804Z,96141.88
2023-11-24T23:15:57.913Z,96150.94
2023-11-24T23:21:01.052Z,96155.31
2023-11-24T23:26:06.610Z,96156.34
2023-11-24T23:31:13.406Z,96178.97
2023-11-24T23:36:16.695Z,96182.44
2023-11-24T23:41:18.863Z,96171.44
2023-11-24T23:46:22.092Z,96186.97
2023-11-24T23:51:24.410Z,96182.00
2023-11-24T23:56:26.539Z,96193.00
